createdAt,value
2018-08-03T00:00:15.124Z,41.4
2018-08-03T00:03:15.327Z,41.6
2018-08-03T00:06:15.672Z,41.7
2018-08-03T00:09:15.637Z,41.8
2018-08-03T00:12:15.840Z,41.8
2018-08-03T00:15:15.121Z,42.0
2018-08-03T00:18:15.538Z,42.3
2018-08-03T00:21:15.728Z,42.3
2018-08-03T00:24:14.966Z,42.4
2018-08-03T00:27:15.229Z,42.5
2018-08-03T00:30:15.475Z,42.7
2018-08-03T00:33:15.718Z,42.8
2018-08-03T00:36:15.785Z,43.1
2018-08-03T00:39:15.124Z,43.1
2018-08-03T00:42:15.383Z,43.2
2018-08-03T00:45:15.611Z,43.4
2018-08-03T00:48:15.762Z,43.6
2018-08-03T00:51:15.908Z,43.8
2018-08-03T00:54:15.218Z,44.0
2018-08-03T00:57:15.533Z,44.2
2018-08-03T01:00:15.702Z,44.3
2018-08-03T01:03:15.893Z,44.4
2018-08-03T01:06:15.114Z,44.7
2018-08-03T01:09:15.416Z,44.6
2018-08-03T01:12:15.711Z,44.6
2018-08-03T01:15:15.970Z,44.7
2018-08-03T01:18:15.316Z,44.7
2018-08-03T01:21:15.537Z,44.8
2018-08-03T01:24:15.640Z,44.8
2018-08-03T01:27:15.814Z,44.9
2018-08-03T01:30:15.131Z,45.1
2018-08-03T01:33:15.413Z,45.3
2018-08-03T01:36:15.617Z,45.4
2018-08-03T01:39:15.731Z,45.5
2018-08-03T01:42:15.954Z,45.5
2018-08-03T01:45:15.126Z,45.5
2018-08-03T01:48:15.369Z,45.4
2018-08-03T01:51:15.608Z,45.5
2018-08-03T01:54:15.740Z,45.6
2018-08-03T01:57:14.929Z,45.7
2018-08-03T02:00:15.561Z,45.6
2018-08-03T02:03:15.789Z,45.6
2018-08-03T02:06:15.099Z,45.7
2018-08-03T02:09:15.668Z,45.8
2018-08-03T02:12:15.940Z,45.9
2018-08-03T02:15:15.125Z,45.9
2018-08-03T02:18:15.490Z,46.0
2018-08-03T02:21:15.614Z,46.1
2018-08-03T02:24:16.057Z,45.9
2018-08-03T02:27:15.273Z,46.0
2018-08-03T02:30:15.483Z,46.0
2018-08-03T02:33:15.617Z,46.0
2018-08-03T02:36:15.918Z,46.1
2018-08-03T02:39:15.110Z,46.1
2018-08-03T02:42:15.344Z,46.1
2018-08-03T02:45:15.691Z,46.2
2018-08-03T02:48:16.056Z,46.5
2018-08-03T02:51:15.248Z,46.4
2018-08-03T02:54:15.459Z,46.5
2018-08-03T02:57:15.682Z,46.5
2018-08-03T03:00:15.176Z,46.6
2018-08-03T03:03:15.415Z,46.6
2018-08-03T03:06:15.553Z,46.9
2018-08-03T03:09:15.712Z,46.8
2018-08-03T03:12:14.975Z,47.1
2018-08-03T03:15:15.215Z,47.0
2018-08-03T03:18:15.344Z,47.1
2018-08-03T03:21:15.582Z,47.2
2018-08-03T03:24:15.841Z,47.2
2018-08-03T03:27:15.003Z,47.2
2018-08-03T03:30:15.319Z,47.1
2018-08-03T03:33:15.610Z,47.2
2018-08-03T03:36:16.068Z,48.6
2018-08-03T03:39:15.360Z,47.9
2018-08-03T03:42:15.514Z,47.7
2018-08-03T03:45:15.598Z,47.7
2018-08-03T03:48:15.849Z,47.7
2018-08-03T03:51:15.044Z,47.6
2018-08-03T03:54:15.104Z,47.7
2018-08-03T03:57:15.306Z,47.7
2018-08-03T04:00:15.516Z,47.9
2018-08-03T04:03:15.700Z,47.9
2018-08-03T04:06:15.973Z,48.3
2018-08-03T04:09:15.138Z,48.4
2018-08-03T04:12:15.501Z,48.2
2018-08-03T04:15:15.736Z,48.2
2018-08-03T04:18:15.291Z,48.2
2018-08-03T04:21:15.562Z,48.4
2018-08-03T04:24:15.833Z,48.3
2018-08-03T04:27:15.811Z,48.6
2018-08-03T04:30:15.082Z,48.4
2018-08-03T04:33:15.264Z,48.3
2018-08-03T04:36:15.715Z,48.2
2018-08-03T04:39:15.970Z,48.2
2018-08-03T04:42:15.325Z,48.2
2018-08-03T04:45:15.019Z,48.1
2018-08-03T04:48:15.233Z,48.3
2018-08-03T04:51:15.479Z,48.0
2018-08-03T04:54:15.665Z,47.9
2018-08-03T04:57:14.989Z,47.6
2018-08-03T05:00:15.815Z,47.6
2018-08-03T05:03:15.040Z,47.4
2018-08-03T05:06:15.896Z,47.3
2018-08-03T05:09:15.227Z,47.4
2018-08-03T05:12:15.521Z,47.2
2018-08-03T05:15:15.725Z,46.9
2018-08-03T05:18:15.062Z,46.8
2018-08-03T05:21:15.382Z,46.9
2018-08-03T05:24:15.912Z,46.4
2018-08-03T05:27:15.664Z,46.6
2018-08-03T05:30:15.979Z,46.3
2018-08-03T05:33:15.310Z,46.2
2018-08-03T05:36:15.663Z,45.9
2018-08-03T05:39:16.182Z,45.8
2018-08-03T05:42:15.559Z,45.3
2018-08-03T05:45:15.461Z,45.0
2018-08-03T05:48:15.861Z,44.3
2018-08-03T05:51:15.150Z,44.1
2018-08-03T05:54:15.522Z,43.8
2018-08-03T05:57:16.075Z,43.5
2018-08-03T06:00:15.504Z,43.1
2018-08-03T06:03:15.975Z,43.1
2018-08-03T06:06:15.488Z,42.8
2018-08-03T06:09:16.097Z,42.4
2018-08-03T06:12:15.703Z,41.6
2018-08-03T06:15:15.269Z,41.3
2018-08-03T06:18:16.065Z,40.9
2018-08-03T06:21:15.708Z,40.4
2018-08-03T06:24:15.318Z,39.8
2018-08-03T06:27:16.015Z,39.1
2018-08-03T06:30:15.650Z,39.5
2018-08-03T06:33:15.540Z,39.0
2018-08-03T06:36:16.224Z,38.3
2018-08-03T06:39:15.910Z,37.4
2018-08-03T06:42:15.532Z,38.0
2018-08-03T06:45:16.367Z,37.8
2018-08-03T06:48:16.124Z,37.9
2018-08-03T06:51:15.808Z,36.1
2018-08-03T06:54:15.583Z,34.9
2018-08-03T06:57:16.228Z,33.3
2018-08-03T07:00:15.948Z,31.7
2018-08-03T07:03:15.849Z,29.3
2018-08-03T07:06:15.465Z,27.4
2018-08-03T07:09:16.140Z,25.6
2018-08-03T07:12:15.917Z,24.6
2018-08-03T07:15:15.627Z,22.5
2018-08-03T07:18:15.546Z,20.6
2018-08-03T07:21:16.229Z,19.7
2018-08-03T07:24:15.674Z,19.3
2018-08-03T07:27:15.261Z,19.1
2018-08-03T07:30:15.984Z,18.2
2018-08-03T07:33:15.725Z,17.7
2018-08-03T07:36:15.412Z,18.5
2018-08-03T07:39:16.132Z,16.9
2018-08-03T07:42:15.806Z,16.4
2018-08-03T07:45:15.493Z,17.2
2018-08-03T07:48:16.098Z,17.7
2018-08-03T07:51:15.747Z,17.3
2018-08-03T07:54:15.495Z,17.6
2018-08-03T07:57:16.287Z,17.7
2018-08-03T08:00:16.125Z,16.9
2018-08-03T08:03:15.887Z,16.6
2018-08-03T08:06:15.646Z,16.4
2018-08-03T08:09:16.290Z,16.3
2018-08-03T08:12:15.993Z,15.9
2018-08-03T08:15:15.806Z,15.1
2018-08-03T08:18:15.672Z,14.3
2018-08-03T08:21:15.831Z,14.3
2018-08-03T08:24:15.886Z,15.2
2018-08-03T08:27:16.117Z,14.2
2018-08-03T08:30:16.419Z,13.6
2018-08-03T08:33:16.754Z,14.7
2018-08-03T08:36:16.036Z,14.8
2018-08-03T08:39:16.651Z,13.7
2018-08-03T08:42:16.282Z,13.9
2018-08-03T08:45:16.609Z,13.9
2018-08-03T08:48:16.059Z,14.4
2018-08-03T08:51:16.356Z,15.0
2018-08-03T08:54:16.622Z,14.5
2018-08-03T08:57:16.910Z,13.8
2018-08-03T09:00:16.156Z,13.9
2018-08-03T09:03:16.528Z,13.2
2018-08-03T09:06:16.939Z,13.7
2018-08-03T09:09:16.588Z,13.2
2018-08-03T09:12:17.184Z,12.8
2018-08-03T09:15:16.792Z,12.8
2018-08-03T09:18:16.785Z,12.4
2018-08-03T09:21:16.442Z,12.5
2018-08-03T09:24:17.130Z,12.5
2018-08-03T09:27:17.088Z,12.9
2018-08-03T09:30:16.772Z,12.9
2018-08-03T09:33:16.810Z,13.4
2018-08-03T09:36:16.445Z,12.8
2018-08-03T09:39:16.897Z,12.8
2018-08-03T09:42:16.379Z,13.1
2018-08-03T09:45:17.069Z,13.0
2018-08-03T09:48:16.501Z,14.3
2018-08-03T09:51:16.791Z,13.7
2018-08-03T09:54:15.985Z,13.1
2018-08-03T09:57:16.160Z,12.6
2018-08-03T10:00:16.419Z,14.1
2018-08-03T10:03:16.174Z,13.8
2018-08-03T10:06:16.245Z,13.4
2018-08-03T10:09:16.241Z,13.3
2018-08-03T10:12:16.222Z,13.6
2018-08-03T10:15:16.024Z,14.4
2018-08-03T10:18:15.927Z,14.2
2018-08-03T10:21:15.584Z,13.3
2018-08-03T10:24:16.321Z,15.0
2018-08-03T10:27:15.981Z,15.7
2018-08-03T10:30:15.692Z,15.0
2018-08-03T10:33:16.315Z,14.1
2018-08-03T10:36:16.187Z,14.6
2018-08-03T10:39:15.808Z,15.0
2018-08-03T10:42:15.495Z,15.8
2018-08-03T10:45:16.228Z,15.7
2018-08-03T10:48:15.966Z,15.2
2018-08-03T10:51:15.674Z,14.2
2018-08-03T10:54:16.722Z,13.5
2018-08-03T10:57:16.192Z,12.9
2018-08-03T11:00:16.816Z,11.4
2018-08-03T11:03:17.591Z,10.1
2018-08-03T11:06:18.435Z,8.9
2018-08-03T11:09:19.457Z,7.5
2018-08-03T11:12:19.620Z,7.1
2018-08-03T11:15:20.599Z,6.2
2018-08-03T11:18:22.134Z,5.9
2018-08-03T11:21:23.116Z,5.7
2018-08-03T11:24:24.196Z,5.5
2018-08-03T11:27:23.625Z,6.2
2018-08-03T11:30:23.718Z,5.7
2018-08-03T11:33:23.875Z,5.3
2018-08-03T11:36:24.066Z,5.8
2018-08-03T11:39:21.678Z,5.7
2018-08-03T11:42:18.982Z,6.8
2018-08-03T11:45:18.053Z,8.8
2018-08-03T11:48:17.699Z,8.8
2018-08-03T11:51:16.427Z,9.8
2018-08-03T11:54:16.683Z,11.4
2018-08-03T11:57:15.499Z,11.0
2018-08-03T12:00:16.292Z,11.6
2018-08-03T12:03:16.088Z,11.8
2018-08-03T12:06:15.925Z,12.4
2018-08-03T12:09:15.591Z,13.2
2018-08-03T12:12:16.314Z,13.0
2018-08-03T12:15:16.622Z,13.2
2018-08-03T12:18:15.335Z,13.1
2018-08-03T12:21:16.170Z,14.2
2018-08-03T12:24:16.115Z,13.9
2018-08-03T12:27:15.859Z,14.3
2018-08-03T12:30:15.616Z,14.3
2018-08-03T12:33:15.371Z,15.7
2018-08-03T12:36:16.245Z,14.6
2018-08-03T12:39:16.098Z,15.1
2018-08-03T12:42:15.927Z,15.4
2018-08-03T12:45:15.642Z,15.5
2018-08-03T12:48:15.395Z,15.6
2018-08-03T12:51:16.196Z,15.7
2018-08-03T12:54:15.906Z,15.9
2018-08-03T12:57:15.704Z,16.3
2018-08-03T13:00:15.403Z,16.2
2018-08-03T13:03:15.540Z,16.5
2018-08-03T13:06:16.289Z,16.2
2018-08-03T13:09:16.106Z,16.2
2018-08-03T13:12:15.785Z,16.3
2018-08-03T13:15:15.628Z,16.5
2018-08-03T13:18:15.497Z,16.3
2018-08-03T13:21:16.392Z,16.4
2018-08-03T13:24:15.610Z,16.5
2018-08-03T13:27:15.419Z,16.7
2018-08-03T13:30:16.225Z,16.5
2018-08-03T13:33:16.342Z,17.0
2018-08-03T13:36:16.331Z,16.6
2018-08-03T13:39:16.426Z,16.4
2018-08-03T13:42:16.208Z,16.5
2018-08-03T13:45:15.997Z,16.7
2018-08-03T13:48:15.776Z,16.1
2018-08-03T13:51:15.512Z,16.4
2018-08-03T13:54:16.223Z,17.2
2018-08-03T13:57:16.070Z,16.6
2018-08-03T14:00:15.766Z,17.0
2018-08-03T14:03:15.642Z,17.3
2018-08-03T14:06:15.412Z,18.5
2018-08-03T14:09:15.741Z,17.2
2018-08-03T14:12:15.488Z,17.7
2018-08-03T14:15:16.165Z,17.2
2018-08-03T14:18:16.014Z,17.0
2018-08-03T14:21:15.847Z,17.2
2018-08-03T14:24:15.832Z,17.2
2018-08-03T14:27:15.748Z,16.9
2018-08-03T14:30:16.207Z,17.1
2018-08-03T14:33:16.189Z,17.0
2018-08-03T14:36:15.850Z,16.9
2018-08-03T14:39:15.548Z,17.1
2018-08-03T14:42:16.260Z,17.0
2018-08-03T14:45:15.983Z,17.3
2018-08-03T14:48:15.669Z,17.3
2018-08-03T14:51:15.346Z,17.5
2018-08-03T14:54:16.061Z,18.2
2018-08-03T14:57:15.779Z,18.0
2018-08-03T15:00:15.631Z,17.6
2018-08-03T15:03:15.502Z,18.1
2018-08-03T15:06:16.206Z,19.5
2018-08-03T15:09:15.853Z,18.1
2018-08-03T15:12:15.524Z,18.3
2018-08-03T15:15:16.252Z,19.2
2018-08-03T15:18:15.890Z,18.9
2018-08-03T15:21:15.610Z,18.9
2018-08-03T15:24:15.881Z,18.7
2018-08-03T15:27:15.685Z,19.6
2018-08-03T15:30:15.446Z,19.1
2018-08-03T15:33:16.336Z,19.4
2018-08-03T15:36:16.167Z,19.2
2018-08-03T15:39:16.261Z,19.3
2018-08-03T15:42:16.298Z,19.3
2018-08-03T15:45:15.803Z,19.6
2018-08-03T15:48:15.693Z,19.5
2018-08-03T15:51:15.496Z,19.6
2018-08-03T15:54:16.177Z,20.0
2018-08-03T15:57:16.072Z,20.5
2018-08-03T16:00:16.021Z,20.3
2018-08-03T16:03:15.843Z,20.9
2018-08-03T16:06:15.609Z,20.6
2018-08-03T16:09:15.480Z,20.6
2018-08-03T16:12:16.230Z,20.7
2018-08-03T16:15:21.479Z,20.8
2018-08-03T16:18:15.823Z,20.7
2018-08-03T16:21:15.543Z,20.7
2018-08-03T16:24:16.348Z,20.7
2018-08-03T16:27:16.184Z,20.5
2018-08-03T16:30:21.997Z,20.5
2018-08-03T16:33:16.049Z,20.4
2018-08-03T16:36:15.392Z,20.3
2018-08-03T16:39:16.380Z,20.6
2018-08-03T16:42:16.365Z,20.4
2018-08-03T16:45:16.258Z,20.6
2018-08-03T16:48:15.532Z,20.6
2018-08-03T16:51:16.400Z,20.5
2018-08-03T16:54:15.563Z,20.5
2018-08-03T16:57:16.379Z,20.8
2018-08-03T17:00:16.272Z,20.3
2018-08-03T17:03:16.075Z,20.6
2018-08-03T17:06:15.860Z,20.4
2018-08-03T17:09:15.852Z,20.5
2018-08-03T17:12:15.740Z,20.6
2018-08-03T17:15:15.457Z,20.7
2018-08-03T17:18:16.374Z,20.8
2018-08-03T17:21:16.323Z,20.7
2018-08-03T17:24:16.287Z,20.7
2018-08-03T17:27:16.085Z,20.8
2018-08-03T17:33:16.344Z,20.7
2018-08-03T17:36:16.314Z,20.8
2018-08-03T17:39:15.995Z,21.2
2018-08-03T17:42:16.142Z,21.2
2018-08-03T17:45:15.850Z,21.2
2018-08-03T17:48:15.664Z,21.0
2018-08-03T17:51:15.447Z,21.3
2018-08-03T17:54:16.214Z,21.2
2018-08-03T17:57:16.022Z,21.3
2018-08-03T18:00:15.831Z,21.4
2018-08-03T18:03:15.367Z,21.5
2018-08-03T18:06:16.063Z,21.3
2018-08-03T18:09:15.753Z,21.5
2018-08-03T18:12:15.690Z,22.1
2018-08-03T18:15:15.378Z,22.1
2018-08-03T18:18:15.501Z,21.9
2018-08-03T18:21:16.318Z,21.9
2018-08-03T18:24:16.198Z,21.9
2018-08-03T18:27:15.958Z,21.8
2018-08-03T18:30:15.728Z,22.2
2018-08-03T18:33:15.638Z,22.5
2018-08-03T18:36:15.843Z,22.5
2018-08-03T18:39:15.446Z,22.3
2018-08-03T18:42:15.461Z,22.2
2018-08-03T18:45:15.738Z,22.5
2018-08-03T18:48:15.588Z,23.0
2018-08-03T18:51:15.334Z,22.6
2018-08-03T18:54:16.070Z,22.7
2018-08-03T18:57:15.888Z,22.7
2018-08-03T19:00:16.325Z,22.7
2018-08-03T19:03:16.197Z,22.7
2018-08-03T19:06:15.987Z,23.0
2018-08-03T19:09:15.686Z,23.4
2018-08-03T19:12:15.497Z,23.6
2018-08-03T19:15:16.319Z,23.8
2018-08-03T19:18:16.239Z,24.3
2018-08-03T19:21:15.993Z,24.6
2018-08-03T19:24:15.867Z,24.6
2018-08-03T19:27:15.579Z,24.7
2018-08-03T19:30:16.315Z,25.3
2018-08-03T19:33:16.136Z,25.2
2018-08-03T19:36:16.195Z,25.5
2018-08-03T19:39:15.921Z,26.0
2018-08-03T19:42:15.700Z,26.1
2018-08-03T19:45:15.529Z,26.4
2018-08-03T19:48:15.549Z,26.7
2018-08-03T19:51:15.485Z,26.8
2018-08-03T19:54:16.167Z,27.0
2018-08-03T19:57:15.925Z,27.0
2018-08-03T20:00:15.809Z,27.1
2018-08-03T20:03:15.521Z,27.7
2018-08-03T20:06:15.390Z,27.4
2018-08-03T20:09:16.271Z,27.6
2018-08-03T20:12:15.981Z,28.0
2018-08-03T20:15:15.784Z,28.1
2018-08-03T20:18:15.777Z,28.4
2018-08-03T20:21:15.796Z,28.7
2018-08-03T20:24:15.847Z,29.9
2018-08-03T20:27:15.698Z,30.8
2018-08-03T20:30:15.464Z,29.9
2018-08-03T20:33:15.581Z,30.1
2018-08-03T20:36:15.621Z,30.1
2018-08-03T20:39:15.540Z,30.3
2018-08-03T20:42:16.296Z,30.4
2018-08-03T20:45:16.010Z,30.6
2018-08-03T20:48:16.164Z,30.8
2018-08-03T20:51:15.921Z,31.0
2018-08-03T20:54:15.816Z,31.2
2018-08-03T20:57:15.610Z,35.5
2018-08-03T21:00:15.766Z,38.4
2018-08-03T21:03:15.532Z,38.4
2018-08-03T21:06:16.185Z,39.5
2018-08-03T21:09:15.922Z,40.8
2018-08-03T21:12:15.554Z,41.0
2018-08-03T21:15:16.131Z,41.2
2018-08-03T21:18:15.795Z,41.5
2018-08-03T21:21:15.424Z,40.9
2018-08-03T21:24:15.998Z,41.3
2018-08-03T21:27:15.409Z,42.0
2018-08-03T21:30:16.085Z,41.3
2018-08-03T21:33:15.676Z,41.0
2018-08-03T21:36:15.354Z,41.1
2018-08-03T21:39:15.932Z,40.8
2018-08-03T21:42:15.392Z,40.8
2018-08-03T21:45:15.791Z,40.2
2018-08-03T21:48:15.229Z,39.4
2018-08-03T21:51:15.613Z,37.9
2018-08-03T21:54:16.130Z,37.3
2018-08-03T21:57:15.635Z,37.2
2018-08-03T22:00:16.034Z,37.1
2018-08-03T22:03:15.554Z,36.9
2018-08-03T22:06:15.995Z,36.9
2018-08-03T22:09:15.379Z,36.7
2018-08-03T22:12:15.677Z,36.5
2018-08-03T22:15:15.188Z,36.5
2018-08-03T22:18:15.596Z,36.4
2018-08-03T22:21:15.108Z,36.3
2018-08-03T22:24:15.613Z,36.2
2018-08-03T22:27:15.410Z,36.1
2018-08-03T22:30:15.816Z,35.8
2018-08-03T22:33:15.204Z,35.7
2018-08-03T22:36:15.704Z,35.9
2018-08-03T22:39:15.146Z,35.8
2018-08-03T22:42:15.567Z,35.7
2018-08-03T22:45:15.908Z,36.2
2018-08-03T22:48:15.287Z,36.0
2018-08-03T22:51:15.658Z,36.0
2018-08-03T22:54:15.062Z,35.8
2018-08-03T22:57:15.384Z,35.9
2018-08-03T23:00:15.706Z,36.1
2018-08-03T23:03:15.178Z,35.8
2018-08-03T23:06:15.491Z,35.6
2018-08-03T23:09:15.910Z,35.4
2018-08-03T23:12:15.186Z,35.0
2018-08-03T23:15:15.583Z,35.1
2018-08-03T23:18:15.149Z,35.3
2018-08-03T23:21:15.478Z,35.2
2018-08-03T23:24:15.857Z,35.1
2018-08-03T23:27:15.269Z,35.9
2018-08-03T23:30:15.642Z,35.3
2018-08-03T23:33:15.949Z,35.2
2018-08-03T23:36:15.355Z,35.0
2018-08-03T23:39:15.856Z,35.0
2018-08-03T23:42:15.191Z,35.1
2018-08-03T23:45:15.696Z,35.3
2018-08-03T23:48:15.112Z,36.0
2018-08-03T23:51:15.549Z,35.7
2018-08-03T23:54:15.847Z,35.6
2018-08-03T23:57:15.210Z,35.7
